Time;durP1;ratioP1;P1;durP2;ratioP2;P2;SDS_P1;SDS_P2;PMS_P1;PMS_P2;Temp;Humidity;BMP_temperature;BMP_pressure;BME280_temperature;BME280_humidity;BME280_pressure;Samples;Min_cycle;Max_cycle;Signal;HPM_P1;HPM_P2
2023/07/12 00:00:34;;;;;;;;;;;;;;;23.44;46.42;98794.54;67855;1277;1015965;-62
2023/07/12 00:03:57;;;;;;;19.30;6.50;;;;;;;23.51;46.36;98798.60;67903;1277;1016488;-62
2023/07/12 00:07:00;;;;;;;;;;;;;;;23.48;46.51;98791.89;67861;1277;1015978;-61
2023/07/12 00:10:02;;;;;;;18.00;6.60;;;;;;;23.29;46.78;98782.84;67848;1277;1016337;-61
2023/07/12 00:13:05;;;;;;;18.80;7.00;;;;;;;23.38;46.44;98779.75;67858;1277;1016337;-61
2023/07/12 00:16:07;;;;;;;;;;;;;;;23.34;46.58;98787.00;67886;1277;1017657;-61
2023/07/12 00:19:09;;;;;;;21.00;7.90;;;;;;;23.33;46.98;98790.83;67854;1277;1016090;-61
2023/07/12 00:22:12;;;;;;;;;;;;;;;23.19;47.26;98784.36;67853;1277;1016293;-62
2023/07/12 00:25:14;;;;;;;20.10;7.50;;;;;;;23.22;47.06;98774.36;67853;1277;1016199;-61
2023/07/12 00:28:16;;;;;;;21.40;8.20;;;;;;;23.38;46.86;98770.81;67820;1277;1016348;-61
2023/07/12 00:31:19;;;;;;;22.90;7.30;;;;;;;23.19;47.10;98766.35;67869;1277;1016349;-62
2023/07/12 00:34:21;;;;;;;20.90;7.50;;;;;;;23.24;46.87;98760.10;67896;1277;1019172;-61
2023/07/12 00:37:24;;;;;;;20.60;8.40;;;;;;;23.20;46.85;98751.80;67843;1277;1016459;-61
2023/07/12 00:40:26;;;;;;;;;;;;;;;22.95;47.48;98757.65;67818;1277;1016268;-62
2023/07/12 00:43:29;;;;;;;21.70;7.90;;;;;;;22.85;47.84;98755.19;67849;1254;1016690;-61
2023/07/12 00:46:32;;;;;;;21.30;7.90;;;;;;;22.88;48.11;98752.40;67852;1277;1016455;-61
2023/07/12 00:49:34;;;;;;;21.20;7.90;;;;;;;23.01;47.65;98747.90;67869;1277;1016700;-62
2023/07/12 00:52:37;;;;;;;21.50;7.90;;;;;;;23.07;47.95;98744.69;67873;1277;1016716;-62
2023/07/12 00:55:40;;;;;;;;;;;;;;;23.12;47.64;98735.50;67870;1277;1016421;-62
2023/07/12 00:58:42;;;;;;;20.40;8.10;;;;;;;23.06;47.85;98735.30;67859;1277;1016386;-61
2023/07/12 01:01:44;;;;;;;;;;;;;;;22.94;48.33;98732.64;67834;1277;1016420;-61
2023/07/12 01:04:47;;;;;;;22.30;8.00;;;;;;;22.77;48.51;98734.58;67850;1277;1016434;-62
2023/07/12 01:07:49;;;;;;;21.40;8.00;;;;;;;22.72;48.37;98731.36;67847;1277;1016367;-63
2023/07/12 01:10:52;;;;;;;;;;;;;;;22.81;48.11;98726.44;67875;1277;1016304;-63
2023/07/12 01:13:54;;;;;;;20.70;7.70;;;;;;;22.93;47.92;98719.35;67830;1277;1016477;-62
2023/07/12 01:16:57;;;;;;;21.50;6.70;;;;;;;22.79;48.15;98733.00;67813;1277;1016494;-62
2023/07/12 01:19:59;;;;;;;;;;;;;;;22.79;48.16;98731.96;67784;1277;1016200;-62
2023/07/12 01:23:02;;;;;;;18.10;6.70;;;;;;;22.77;48.01;98735.08;67877;1277;1016268;-62
2023/07/12 01:26:05;;;;;;;18.00;6.70;;;;;;;22.78;47.84;98736.55;67808;1277;1016422;-62
2023/07/12 01:29:07;;;;;;;;;;;;;;;22.75;47.80;98735.52;67827;1277;1016231;-62
2023/07/12 01:32:09;;;;;;;22.00;7.30;;;;;;;22.76;47.88;98728.10;67805;1277;1020043;-62
2023/07/12 01:35:12;;;;;;;20.30;7.40;;;;;;;22.82;47.74;98725.02;67894;1277;1016425;-62
2023/07/12 01:38:14;;;;;;;;;;;;;;;22.97;47.58;98717.13;67866;1277;1016525;-62
2023/07/12 01:41:16;;;;;;;19.20;7.50;;;;;;;22.97;47.43;98715.13;67889;1277;1016893;-61
2023/07/12 01:44:19;;;;;;;19.40;7.30;;;;;;;22.79;47.54;98712.90;67840;1277;1016409;-62
2023/07/12 01:47:21;;;;;;;20.90;8.30;;;;;;;22.69;47.76;98713.19;67838;1277;1016399;-62
2023/07/12 01:50:24;;;;;;;20.90;7.70;;;;;;;22.91;47.14;98704.66;67864;1277;1017411;-61
2023/07/12 01:53:26;;;;;;;;;;;;;;;22.85;47.38;98703.16;67833;1277;1015916;-62
2023/07/12 01:56:28;;;;;;;20.30;7.70;;;;;;;22.86;47.61;98694.30;67861;1277;1016492;-61
2023/07/12 01:59:31;;;;;;;22.20;7.70;;;;;;;22.82;47.54;98689.27;67829;1277;1016356;-61
2023/07/12 02:02:33;;;;;;;21.60;8.30;;;;;;;22.78;47.69;98687.85;67838;1277;1016480;-61
2023/07/12 02:05:36;;;;;;;;;;;;;;;22.81;47.79;98690.08;67872;1277;1016433;-62
2023/07/12 02:08:38;;;;;;;20.80;7.80;;;;;;;22.99;47.67;98687.16;67870;1277;1016610;-61
2023/07/12 02:11:41;;;;;;;;;;;;;;;23.02;47.07;98689.27;67883;1277;1016388;-60
2023/07/12 02:14:43;;;;;;;27.20;8.70;;;;;;;23.07;46.87;98683.58;67849;1277;1018211;-60
2023/07/12 02:17:45;;;;;;;;;;;;;;;23.14;46.95;98682.70;67864;1277;1016876;-60
2023/07/12 02:20:48;;;;;;;20.20;8.20;;;;;;;23.29;46.81;98680.51;67822;1277;1016357;-60
2023/07/12 02:23:50;;;;;;;;;;;;;;;23.28;46.74;98671.48;67857;1277;1016252;-60
2023/07/12 02:26:53;;;;;;;23.50;7.80;;;;;;;23.11;46.68;98671.36;67915;1277;1016395;-61
2023/07/12 02:29:55;;;;;;;20.30;6.40;;;;;;;23.19;46.51;98670.52;67881;1277;1016103;-60
2023/07/12 02:32:57;;;;;;;18.30;6.20;;;;;;;22.92;46.82;98663.52;67857;1277;1016247;-60
2023/07/12 02:36:00;;;;;;;;;;;;;;;22.78;47.13;98663.13;67801;1277;1015717;-60
2023/07/12 02:39:02;;;;;;;21.20;7.90;;;;;;;22.94;47.05;98659.75;67802;1277;1016510;-60
2023/07/12 02:42:05;;;;;;;19.00;6.80;;;;;;;22.96;47.20;98661.45;67901;1277;1016409;-62
2023/07/12 02:45:07;;;;;;;20.70;7.90;;;;;;;22.84;47.67;98661.34;67893;1277;1017143;-61
2023/07/12 02:48:09;;;;;;;20.60;8.10;;;;;;;22.92;47.76;98653.67;67886;1277;1016540;-62
2023/07/12 02:51:12;;;;;;;19.90;7.70;;;;;;;22.74;48.13;98651.98;67873;1277;1015832;-60
2023/07/12 02:54:14;;;;;;;;;;;;;;;22.91;47.75;98640.98;67843;1277;1018897;-63
2023/07/12 03:58:39;;;;;;;23.60;9.10;;;;;;;21.85;73.90;98621.90;132254;1308;558077;-73
2023/07/12 04:01:41;;;;;;;24.30;8.80;;;;;;;23.60;67.50;98627.28;134517;1289;184876;-71
2023/07/12 04:04:44;;;;;;;24.60;9.10;;;;;;;23.70;67.39;98629.66;134722;1289;22551;-75
2023/07/12 04:07:47;;;;;;;24.10;9.60;;;;;;;24.04;65.70;98623.36;134694;1289;26304;-74
2023/07/12 04:10:49;;;;;;;26.20;10.00;;;;;;;23.94;66.36;98623.77;134702;1289;22547;-77
2023/07/12 04:13:51;;;;;;;25.30;10.60;;;;;;;24.11;65.58;98625.98;134695;1289;22540;-74
2023/07/12 04:16:54;;;;;;;25.40;9.70;;;;;;;24.80;62.94;98622.52;105832;1289;1015605;-74
2023/07/12 04:19:57;;;;;;;25.80;10.00;;;;;;;24.88;63.05;98619.38;67330;1289;1017181;-75
2023/07/12 04:22:59;;;;;;;22.60;8.60;;;;;;;25.23;61.48;98613.24;67339;1289;1015920;-75
2023/07/12 04:26:02;;;;;;;;;;;;;;;25.41;61.19;98610.98;67307;1289;1016519;-73
2023/07/12 04:29:05;;;;;;;23.90;9.50;;;;;;;25.64;60.38;98598.19;67300;1286;1016469;-74
2023/07/12 04:32:07;;;;;;;23.40;9.40;;;;;;;25.88;60.24;98597.34;67466;1275;1016411;-76
2023/07/12 04:35:10;;;;;;;256.70;27.20;;;;;;;26.47;58.33;98589.48;67460;1283;1016259;-77
2023/07/12 04:38:13;;;;;;;22.40;9.10;;;;;;;26.37;59.28;98578.52;67465;1275;1016267;-78
2023/07/12 04:41:15;;;;;;;22.30;8.90;;;;;;;26.55;58.65;98566.83;67477;1276;1016490;-77
2023/07/12 04:44:18;;;;;;;24.10;9.10;;;;;;;26.94;57.78;98560.10;67486;1283;1017442;-74
2023/07/12 04:47:21;;;;;;;24.10;9.50;;;;;;;27.17;57.13;98554.84;67504;1283;1018870;-77
2023/07/12 04:50:24;;;;;;;21.60;8.70;;;;;;;27.51;56.68;98552.88;67433;1279;1016358;-79
2023/07/12 04:53:27;;;;;;;24.10;9.20;;;;;;;27.80;56.14;98555.51;67507;1283;1016014;-68
2023/07/12 04:56:29;;;;;;;20.10;8.00;;;;;;;27.77;56.48;98553.94;67806;1275;1016265;-76
2023/07/12 04:59:32;;;;;;;19.70;8.60;;;;;;;28.15;55.37;98546.48;67720;1272;1016239;-79
2023/07/12 05:02:35;;;;;;;24.10;8.40;;;;;;;28.50;54.06;98542.05;67727;1279;1015995;-72
2023/07/12 05:05:37;;;;;;;22.30;8.90;;;;;;;28.59;53.39;98533.27;67785;1279;1019667;-74
2023/07/12 05:08:40;;;;;;;21.20;8.50;;;;;;;28.92;52.19;98527.88;67721;1279;1016637;-68
2023/07/12 05:11:43;;;;;;;24.80;8.90;;;;;;;28.79;52.82;98528.92;67733;1279;1016039;-73
2023/07/12 05:14:45;;;;;;;21.20;8.40;;;;;;;29.32;51.99;98528.58;67788;1278;1016199;-75
2023/07/12 05:17:47;;;;;;;21.70;9.00;;;;;;;29.66;50.46;98531.48;67769;1279;1015820;-77
2023/07/12 05:20:50;;;;;;;21.80;8.10;;;;;;;29.57;50.69;98527.35;67719;1279;1016301;-77
2023/07/12 05:23:52;;;;;;;22.70;8.20;;;;;;;29.95;49.71;98531.98;67700;1279;1016870;-73
2023/07/12 05:26:56;;;;;;;22.30;8.00;;;;;;;30.11;49.32;98532.77;67738;1278;1016800;-70
2023/07/12 05:29:58;;;;;;;22.10;8.20;;;;;;;30.46;48.64;98531.58;67708;1278;1016496;-71
2023/07/12 05:33:01;;;;;;;20.50;7.50;;;;;;;30.67;48.02;98525.83;67735;1279;1018953;-75
2023/07/12 05:36:03;;;;;;;20.60;7.80;;;;;;;31.05;47.33;98522.60;67741;1279;1016472;-75
2023/07/12 05:39:06;;;;;;;21.70;8.40;;;;;;;31.23;47.60;98525.38;67766;1279;1017120;-75
2023/07/12 05:42:08;;;;;;;20.80;7.50;;;;;;;31.46;46.88;98521.93;67757;1279;1016478;-79
2023/07/12 05:45:12;;;;;;;19.50;7.20;;;;;;;31.76;46.60;98522.33;67723;1279;1016193;-74
2023/07/12 05:48:15;;;;;;;20.40;7.50;;;;;;;31.86;45.84;98523.45;67755;1279;1016472;-70
2023/07/12 05:51:17;;;;;;;20.00;7.40;;;;;;;31.51;45.63;98529.09;67817;1279;1016434;-77
2023/07/12 05:54:20;;;;;;;21.10;7.30;;;;;;;31.81;45.42;98540.59;67739;1279;1016255;-77
2023/07/12 05:57:22;;;;;;;23.20;7.50;;;;;;;31.98;45.11;98547.90;67728;1278;1016469;-66
2023/07/12 06:00:25;;;;;;;19.90;6.90;;;;;;;32.44;44.35;98545.57;67772;1278;1016522;-77
2023/07/12 06:03:27;;;;;;;19.80;6.60;;;;;;;32.91;43.47;98535.52;67778;1279;1016648;-69
2023/07/12 06:06:30;;;;;;;19.80;6.90;;;;;;;33.05;42.28;98526.47;67764;1279;1016653;-72
2023/07/12 06:09:32;;;;;;;19.60;6.70;;;;;;;33.14;42.37;98521.19;67722;1278;1017748;-72
2023/07/12 06:12:34;;;;;;;20.10;6.50;;;;;;;33.34;42.13;98523.29;67752;1279;1016130;-66
2023/07/12 06:15:37;;;;;;;18.30;5.90;;;;;;;33.69;41.51;98532.16;67771;1279;1016951;-75
2023/07/12 06:18:39;;;;;;;19.90;7.30;;;;;;;34.02;40.96;98532.52;67772;1279;1016304;-71
2023/07/12 06:21:42;;;;;;;19.10;6.50;;;;;;;34.26;40.36;98535.25;67767;1279;1016364;-71
2023/07/12 06:24:44;;;;;;;18.80;6.50;;;;;;;34.71;40.29;98525.76;67743;1278;1016433;-67
2023/07/12 06:27:47;;;;;;;18.20;6.40;;;;;;;35.27;38.87;98511.27;67718;1279;1016448;-73
2023/07/12 06:30:49;;;;;;;19.30;6.30;;;;;;;35.64;38.44;98504.02;67790;1279;1016298;-74
2023/07/12 06:33:51;;;;;;;18.60;6.20;;;;;;;35.82;37.39;98504.98;67800;1279;1016233;-73
2023/07/12 06:36:54;;;;;;;18.10;6.30;;;;;;;35.54;37.37;98509.98;67751;1279;1016440;-73
2023/07/12 06:39:56;;;;;;;18.10;6.50;;;;;;;35.70;37.64;98508.91;67763;1279;1016419;-72
2023/07/12 06:42:58;;;;;;;17.50;5.90;;;;;;;35.89;37.41;98508.05;67727;1279;1016447;-72
2023/07/12 06:46:01;;;;;;;18.40;6.20;;;;;;;36.06;37.37;98498.98;67765;1279;1016892;-69
2023/07/12 06:49:03;;;;;;;20.90;6.40;;;;;;;36.38;36.50;98495.46;67756;1279;1016579;-70
2023/07/12 06:52:06;;;;;;;19.20;6.00;;;;;;;36.62;35.88;98491.94;67766;1279;1016281;-66
2023/07/12 06:55:09;;;;;;;17.20;6.20;;;;;;;36.63;36.26;98485.04;67706;1278;1016279;-73
2023/07/12 06:58:11;;;;;;;17.90;5.90;;;;;;;36.08;37.40;98478.58;67767;1279;1016320;-68
2023/07/12 07:01:14;;;;;;;21.00;6.00;;;;;;;36.45;37.01;98478.39;67760;1279;1018105;-71
2023/07/12 07:04:17;;;;;;;17.40;5.90;;;;;;;36.67;36.28;98476.31;67733;1279;1016388;-70
2023/07/12 07:07:19;;;;;;;17.20;5.80;;;;;;;36.78;36.17;98472.12;67703;1279;1016794;-67
2023/07/12 07:10:21;;;;;;;17.10;5.80;;;;;;;36.85;35.75;98470.39;67783;1279;1016326;-75
2023/07/12 07:13:24;;;;;;;15.60;5.50;;;;;;;36.69;34.79;98456.55;67825;1279;1015976;-71
2023/07/12 07:16:26;;;;;;;17.30;5.90;;;;;;;36.37;34.94;98450.64;67753;1278;1016420;-71
2023/07/12 07:19:29;;;;;;;18.70;6.50;;;;;;;36.02;35.20;98444.00;67735;1278;1016446;-73
2023/07/12 07:22:31;;;;;;;18.80;6.30;;;;;;;36.02;35.96;98437.08;67714;1278;1015969;-75
2023/07/12 07:25:33;;;;;;;21.00;6.30;;;;;;;35.88;36.53;98437.90;67795;1279;1018840;-71
2023/07/12 07:28:36;;;;;;;17.90;6.20;;;;;;;36.11;36.32;98441.95;67766;1279;1016302;-67
2023/07/12 07:31:38;;;;;;;21.10;6.50;;;;;;;35.83;36.28;98441.88;67752;1279;1019275;-69
2023/07/12 07:34:42;;;;;;;22.10;6.30;;;;;;;36.00;36.59;98441.86;67687;1279;1016474;-69
2023/07/12 07:37:44;;;;;;;19.10;6.00;;;;;;;36.30;35.75;98442.32;67786;1278;1015985;-79
2023/07/12 07:40:47;;;;;;;18.50;5.60;;;;;;;36.07;36.45;98441.29;67750;1279;1016310;-75
2023/07/12 07:43:49;;;;;;;16.10;5.30;;;;;;;36.15;36.35;98440.85;67718;1279;1017988;-71
2023/07/12 07:46:52;;;;;;;17.00;5.70;;;;;;;36.24;35.72;98433.02;67779;1279;1016906;-75
2023/07/12 07:49:54;;;;;;;17.50;5.50;;;;;;;36.36;35.94;98433.31;67779;1279;1016335;-72
2023/07/12 07:52:57;;;;;;;17.60;5.60;;;;;;;36.69;35.55;98427.58;67712;1279;1016488;-68
2023/07/12 07:55:59;;;;;;;18.70;5.70;;;;;;;36.94;35.03;98423.48;67742;1279;1018711;-75
2023/07/12 07:59:01;;;;;;;18.10;5.60;;;;;;;37.22;34.68;98420.64;67750;1279;1016426;-70
2023/07/12 08:02:04;;;;;;;17.90;5.80;;;;;;;37.43;34.69;98411.36;67794;1279;1016769;-71
2023/07/12 08:05:06;;;;;;;17.80;6.00;;;;;;;37.65;34.32;98406.36;67749;1279;1016385;-66
2023/07/12 08:08:09;;;;;;;17.50;5.90;;;;;;;37.90;33.51;98408.21;67744;1279;1016571;-73
2023/07/12 08:11:11;;;;;;;15.00;5.50;;;;;;;38.10;34.09;98414.70;67734;1279;1016728;-69
2023/07/12 08:14:14;;;;;;;18.20;5.80;;;;;;;38.81;33.51;98406.02;67709;1279;1016451;-69
2023/07/12 08:17:16;;;;;;;15.40;5.50;;;;;;;39.04;33.20;98410.17;67764;1279;1016191;-71
2023/07/12 08:20:19;;;;;;;17.20;5.20;;;;;;;38.99;32.40;98408.23;67809;1279;1016771;-67
2023/07/12 08:23:21;;;;;;;15.20;4.80;;;;;;;39.01;31.69;98409.17;67730;1279;1016249;-75
2023/07/12 08:26:23;;;;;;;13.70;4.70;;;;;;;38.89;31.21;98416.64;67754;1279;1018075;-70
2023/07/12 08:29:26;;;;;;;16.00;5.00;;;;;;;38.92;30.70;98412.55;67754;1279;1016468;-68
2023/07/12 08:32:28;;;;;;;17.50;4.70;;;;;;;39.01;30.97;98405.67;67766;1279;1016693;-70
2023/07/12 08:35:31;;;;;;;11.80;4.40;;;;;;;39.34;30.94;98401.19;67769;1279;1016255;-74
2023/07/12 08:38:33;;;;;;;14.20;4.60;;;;;;;39.25;31.22;98398.78;67731;1279;1016480;-70
2023/07/12 08:41:36;;;;;;;13.30;4.60;;;;;;;38.85;30.84;98396.79;67717;1279;1016712;-69
2023/07/12 08:44:39;;;;;;;13.80;4.60;;;;;;;39.07;30.48;98399.86;67758;1279;1016544;-72
2023/07/12 08:47:41;;;;;;;16.10;4.70;;;;;;;39.31;29.85;98401.23;67752;1279;1016317;-74
2023/07/12 08:50:44;;;;;;;17.40;5.00;;;;;;;39.04;30.56;98404.26;67707;1279;1016741;-72
2023/07/12 08:53:49;;;;;;;16.80;5.10;;;;;;;38.97;31.11;98401.70;67760;1279;1016456;-77
2023/07/12 08:56:51;;;;;;;14.60;4.70;;;;;;;39.19;30.54;98398.41;67728;1279;1016483;-70
2023/07/12 08:59:53;;;;;;;15.50;5.20;;;;;;;39.21;30.70;98385.55;67758;1279;1016060;-69
2023/07/12 09:02:56;;;;;;;15.20;4.70;;;;;;;39.27;30.32;98383.79;67743;1279;1018109;-73
2023/07/12 09:05:59;;;;;;;16.70;5.00;;;;;;;39.59;30.89;98379.82;67749;1279;1016491;-67
2023/07/12 09:09:04;;;;;;;18.00;5.20;;;;;;;40.00;30.19;98378.59;67764;1279;1016527;-70
2023/07/12 09:12:07;;;;;;;15.60;5.00;;;;;;;40.43;29.91;98365.05;67725;1279;1016234;-72
2023/07/12 09:15:10;;;;;;;16.90;5.50;;;;;;;40.57;29.40;98357.52;67743;1279;1017635;-70
2023/07/12 09:18:12;;;;;;;17.00;5.50;;;;;;;40.62;29.36;98352.30;67718;1278;1016468;-66
2023/07/12 09:21:15;;;;;;;19.30;5.10;;;;;;;40.60;29.41;98347.44;67779;1279;1016698;-69
2023/07/12 09:24:17;;;;;;;15.90;5.50;;;;;;;41.06;29.15;98350.66;67769;1279;1015786;-65
2023/07/12 09:27:20;;;;;;;16.30;5.10;;;;;;;40.86;29.40;98352.85;67737;1279;1016169;-70
2023/07/12 09:30:22;;;;;;;15.10;5.40;;;;;;;41.08;29.52;98348.75;67708;1279;1016847;-69
2023/07/12 09:33:25;;;;;;;18.40;5.80;;;;;;;40.81;29.06;98346.75;67733;1279;1016436;-65
2023/07/12 09:36:27;;;;;;;15.40;5.40;;;;;;;40.82;29.26;98350.51;67766;1279;1016438;-70
2023/07/12 09:39:30;;;;;;;17.00;5.50;;;;;;;41.19;28.91;98350.56;67740;1278;1015885;-69
2023/07/12 09:42:32;;;;;;;19.10;6.00;;;;;;;41.30;28.61;98342.36;67721;1278;1019374;-67
2023/07/12 09:45:35;;;;;;;15.90;5.30;;;;;;;41.29;28.15;98337.17;67741;1279;1016395;-68
2023/07/12 09:48:37;;;;;;;16.70;5.50;;;;;;;41.15;29.20;98333.46;67768;1278;1018759;-73
2023/07/12 09:51:39;;;;;;;17.30;5.80;;;;;;;41.26;28.74;98333.73;67764;1279;1016497;-71
2023/07/12 09:54:42;;;;;;;17.00;5.70;;;;;;;41.35;28.52;98333.52;67751;1279;1016330;-72
2023/07/12 09:57:44;;;;;;;16.60;5.60;;;;;;;41.58;28.29;98336.36;67747;1278;1018159;-66
2023/07/12 10:00:47;;;;;;;18.10;6.00;;;;;;;41.75;27.94;98336.33;67720;1279;1016051;-75
2023/07/12 10:03:50;;;;;;;20.20;6.10;;;;;;;41.99;28.19;98330.42;67796;1279;1016919;-67
2023/07/12 10:06:52;;;;;;;22.70;5.90;;;;;;;42.16;27.60;98329.00;67754;1279;1016124;-68
2023/07/12 10:09:55;;;;;;;17.00;5.40;;;;;;;42.02;26.79;98324.54;67748;1278;1015858;-73
2023/07/12 10:12:57;;;;;;;16.60;5.50;;;;;;;42.32;26.73;98324.21;67789;1278;1016384;-73
2023/07/12 10:15:59;;;;;;;17.30;5.70;;;;;;;42.45;26.21;98310.60;67829;1278;1008017;-73
2023/07/12 10:19:02;;;;;;;17.40;6.10;;;;;;;42.14;26.58;98311.48;67805;1278;1016442;-66
2023/07/12 10:22:04;;;;;;;18.00;5.70;;;;;;;41.95;26.31;98313.10;67778;1278;1016360;-69
2023/07/12 10:25:10;;;;;;;20.60;6.90;;;;;;;41.51;26.74;98313.67;67741;1278;1018891;-72
2023/07/12 10:28:13;;;;;;;18.50;6.60;;;;;;;41.09;26.96;98306.23;67758;1278;1016216;-70
2023/07/12 10:31:15;;;;;;;19.00;6.90;;;;;;;40.69;27.12;98305.23;67749;1278;1016486;-70
2023/07/12 10:34:18;;;;;;;20.60;7.50;;;;;;;40.13;27.73;98312.48;67775;1278;1016437;-65
2023/07/12 10:37:20;;;;;;;21.40;7.10;;;;;;;39.34;28.43;98318.74;67789;1278;1018957;-68
2023/07/12 10:40:22;;;;;;;22.80;8.10;;;;;;;38.22;29.48;98326.94;67801;1278;1016936;-69
2023/07/12 10:43:25;;;;;;;21.00;7.40;;;;;;;37.10;30.75;98330.00;67763;1278;1016454;-66
2023/07/12 10:46:29;;;;;;;19.90;7.80;;;;;;;36.18;32.27;98337.39;67722;1278;1016284;-69
2023/07/12 10:49:32;;;;;;;24.00;7.70;;;;;;;35.38;33.44;98356.02;67798;1278;1016416;-69
2023/07/12 10:52:34;;;;;;;25.20;8.40;;;;;;;34.07;36.13;98394.11;67768;1278;1016428;-70
2023/07/12 10:55:37;;;;;;;37.10;18.70;;;;;;;33.22;39.05;98411.70;67802;1278;1016088;-68
2023/07/12 10:58:39;;;;;;;34.50;15.90;;;;;;;32.30;42.57;98420.86;67753;1278;1016513;-72
2023/07/12 11:01:42;;;;;;;26.40;10.00;;;;;;;31.44;45.41;98428.35;67737;1278;1016524;-75
2023/07/12 11:04:44;;;;;;;25.80;9.30;;;;;;;30.91;49.09;98442.29;67772;1278;1018265;-74
2023/07/12 11:07:47;;;;;;;22.50;8.80;;;;;;;30.60;51.00;98447.27;67776;1278;1016478;-72
2023/07/12 11:10:49;;;;;;;23.80;9.50;;;;;;;30.10;53.61;98446.69;67744;1278;1016186;-73
2023/07/12 11:13:51;;;;;;;23.70;10.10;;;;;;;29.91;55.29;98442.41;67732;1278;1016224;-69
2023/07/12 11:16:54;;;;;;;23.30;9.90;;;;;;;29.64;56.00;98440.22;67703;1278;1016690;-76
2023/07/12 11:19:56;;;;;;;25.20;10.40;;;;;;;29.58;56.55;98433.69;67744;1278;1016222;-74
2023/07/12 11:23:02;;;;;;;23.80;9.90;;;;;;;29.50;56.47;98424.05;67785;1278;1016096;-69
2023/07/12 11:26:05;;;;;;;22.80;9.60;;;;;;;29.43;55.90;98423.69;67787;1278;1016316;-71
2023/07/12 11:29:07;;;;;;;23.80;10.40;;;;;;;29.47;55.48;98431.33;67754;1278;1016557;-72
2023/07/12 11:32:10;;;;;;;23.40;10.10;;;;;;;29.62;55.87;98442.92;67761;1278;1016224;-72
2023/07/12 11:35:12;;;;;;;25.30;10.00;;;;;;;29.90;54.79;98440.91;67745;1278;1016134;-71
2023/07/12 11:38:14;;;;;;;22.90;10.30;;;;;;;29.94;54.82;98445.98;67771;1278;1016465;-70
2023/07/12 11:41:17;;;;;;;24.50;11.00;;;;;;;30.41;54.11;98441.62;67761;1278;1016456;-71
2023/07/12 11:44:19;;;;;;;27.30;11.70;;;;;;;30.46;54.12;98444.27;67752;1278;1016286;-71
2023/07/12 11:47:22;;;;;;;25.90;11.50;;;;;;;30.68;53.77;98447.11;67762;1278;1016436;-71
2023/07/12 11:50:24;;;;;;;24.30;11.10;;;;;;;30.78;54.04;98440.24;67752;1278;1016361;-73
2023/07/12 11:53:26;;;;;;;25.10;11.00;;;;;;;31.26;52.93;98437.73;67802;1278;1016233;-71
2023/07/12 11:56:29;;;;;;;25.00;11.00;;;;;;;31.27;53.58;98433.48;67772;1278;1016147;-72
2023/07/12 11:59:31;;;;;;;24.30;10.90;;;;;;;31.54;52.63;98432.20;67771;1278;1016438;-72
2023/07/12 12:02:34;;;;;;;25.30;11.80;;;;;;;31.55;53.49;98427.84;67777;1278;1015816;-71
2023/07/12 12:05:38;;;;;;;23.90;11.10;;;;;;;31.84;52.38;98435.57;67778;1278;1018505;-67
2023/07/12 12:08:40;;;;;;;23.50;10.20;;;;;;;31.90;53.37;98442.10;67749;1278;1016802;-70
2023/07/12 12:11:43;;;;;;;27.40;11.30;;;;;;;31.60;54.19;98446.86;67776;1278;1016364;-70
2023/07/12 12:14:45;;;;;;;23.90;10.40;;;;;;;31.44;54.15;98432.11;67796;1278;1016420;-71
2023/07/12 12:17:48;;;;;;;21.80;9.60;;;;;;;32.11;52.47;98431.21;67774;1278;1016510;-71
2023/07/12 12:20:50;;;;;;;21.50;9.10;;;;;;;32.16;51.59;98433.91;67789;1278;1016834;-70
2023/07/12 12:23:53;;;;;;;22.10;9.50;;;;;;;32.18;51.93;98420.77;67757;1278;1018018;-70
2023/07/12 12:26:55;;;;;;;23.00;10.20;;;;;;;32.59;52.20;98405.89;67765;1278;1016793;-71
2023/07/12 12:29:58;;;;;;;21.40;9.50;;;;;;;33.70;51.23;98403.25;67772;1278;1016295;-71
2023/07/12 12:33:01;;;;;;;21.30;8.50;;;;;;;34.58;48.77;98399.73;67753;1278;1016458;-70
2023/07/12 12:36:03;;;;;;;18.90;8.00;;;;;;;34.94;46.21;98394.83;67786;1278;1017331;-70
2023/07/12 12:39:06;;;;;;;20.30;8.50;;;;;;;35.40;44.71;98388.91;67801;1278;1016583;-70
2023/07/12 12:42:09;;;;;;;22.20;9.20;;;;;;;35.80;46.04;98389.37;67762;1278;1016487;-69
2023/07/12 12:45:11;;;;;;;20.70;8.50;;;;;;;36.20;45.55;98383.19;67774;1278;1016404;-69
2023/07/12 12:48:14;;;;;;;23.50;8.40;;;;;;;36.73;44.56;98383.89;67801;1278;1018448;-70
2023/07/12 12:51:16;;;;;;;19.90;8.20;;;;;;;36.87;42.73;98392.39;67757;1278;1016237;-67
2023/07/12 12:54:19;;;;;;;21.30;8.30;;;;;;;36.72;43.13;98390.45;67771;1278;1018947;-68
2023/07/12 12:57:21;;;;;;;19.80;8.30;;;;;;;36.64;42.14;98397.92;67753;1278;1016708;-70
2023/07/12 13:00:23;;;;;;;19.50;8.30;;;;;;;36.90;42.43;98401.45;67785;1278;1016114;-69
2023/07/12 13:03:26;;;;;;;21.50;8.30;;;;;;;37.04;41.90;98393.71;67783;1278;1016435;-70
2023/07/12 13:06:28;;;;;;;22.40;8.30;;;;;;;36.80;41.38;98394.86;67814;1278;1018495;-70
2023/07/12 13:09:32;;;;;;;19.50;7.70;;;;;;;36.27;40.98;98386.08;67755;1278;1016583;-70
2023/07/12 13:12:34;;;;;;;21.30;8.20;;;;;;;36.10;41.27;98384.48;67823;1278;1016752;-69
2023/07/12 13:15:37;;;;;;;22.50;8.30;;;;;;;36.31;42.10;98377.88;67746;1278;1016341;-68
2023/07/12 13:18:39;;;;;;;22.30;8.90;;;;;;;36.97;42.66;98379.02;67753;1278;1016499;-69
2023/07/12 13:21:42;;;;;;;22.60;8.90;;;;;;;37.83;41.13;98375.28;67763;1278;1016368;-68
2023/07/12 13:24:44;;;;;;;21.70;8.60;;;;;;;38.18;40.11;98378.41;67779;1278;1016503;-68
2023/07/12 13:27:46;;;;;;;23.00;9.60;;;;;;;38.46;40.24;98379.66;67827;1278;1016723;-69
2023/07/12 13:30:49;;;;;;;21.50;8.80;;;;;;;38.39;40.28;98374.69;67816;1278;1016256;-69
2023/07/12 13:33:51;;;;;;;20.90;9.30;;;;;;;38.82;39.53;98377.81;67752;1278;1016011;-69
2023/07/12 13:36:54;;;;;;;23.80;10.30;;;;;;;38.28;38.47;98388.05;67802;1278;1016474;-67
2023/07/12 13:39:56;;;;;;;21.80;9.20;;;;;;;37.67;39.31;98386.33;67774;1278;1016387;-68
2023/07/12 13:42:58;;;;;;;23.00;9.80;;;;;;;37.33;39.63;98394.31;67807;1278;1016327;-68
2023/07/12 13:46:01;;;;;;;22.50;9.70;;;;;;;37.12;40.75;98392.61;67784;1278;1016368;-67
2023/07/12 13:49:03;;;;;;;22.00;10.20;;;;;;;37.10;40.91;98398.96;67806;1278;1016531;-68
2023/07/12 13:52:06;;;;;;;21.90;9.70;;;;;;;37.02;40.43;98401.27;67749;1278;1016410;-68
2023/07/12 13:55:08;;;;;;;20.70;9.50;;;;;;;36.78;40.64;98398.36;67766;1278;1016294;-70
2023/07/12 13:58:11;;;;;;;24.40;10.00;;;;;;;36.66;40.64;98396.56;67788;1278;1016489;-69
2023/07/12 14:01:14;;;;;;;22.10;10.10;;;;;;;36.59;40.84;98389.46;67807;1278;1016473;-69
2023/07/12 14:04:16;;;;;;;21.20;9.40;;;;;;;37.00;40.48;98382.03;67753;1278;1018260;-69
2023/07/12 14:07:19;;;;;;;24.10;10.50;;;;;;;37.25;39.89;98382.39;67791;1278;1016378;-68
2023/07/12 14:10:21;;;;;;;23.00;9.90;;;;;;;37.64;40.34;98385.46;67795;1278;1016305;-67
2023/07/12 14:13:24;;;;;;;19.70;9.10;;;;;;;38.34;40.25;98383.05;67761;1278;1018822;-68
2023/07/12 14:16:27;;;;;;;22.20;9.50;;;;;;;38.90;39.84;98381.77;67760;1278;1016758;-68
2023/07/12 14:19:29;;;;;;;22.20;9.00;;;;;;;39.54;38.85;98374.88;67804;1278;1016433;-70
2023/07/12 14:22:32;;;;;;;21.00;8.90;;;;;;;39.78;37.27;98373.63;67768;1278;1016736;-68
2023/07/12 14:25:37;;;;;;;19.80;8.80;;;;;;;39.67;35.72;98373.46;67775;1278;1019121;-70
2023/07/12 14:28:40;;;;;;;20.30;9.00;;;;;;;39.22;36.46;98371.78;67787;1278;1016289;-70
2023/07/12 14:31:43;;;;;;;22.60;8.90;;;;;;;38.94;37.28;98366.94;67773;1257;1016071;-69
2023/07/12 14:34:45;;;;;;;21.00;8.90;;;;;;;39.29;36.91;98357.77;67835;1278;1017144;-70
2023/07/12 14:37:49;;;;;;;21.40;9.20;;;;;;;39.93;36.89;98350.46;67778;1278;1016529;-70
2023/07/12 14:40:51;;;;;;;20.90;8.00;;;;;;;39.87;36.28;98343.05;67819;1278;1018525;-66
2023/07/12 14:43:54;;;;;;;21.20;8.10;;;;;;;39.96;35.67;98339.50;67819;1278;1016388;-66
2023/07/12 14:46:56;;;;;;;19.10;8.00;;;;;;;39.60;35.90;98336.02;67793;1278;1016449;-69
2023/07/12 14:49:59;;;;;;;18.80;8.00;;;;;;;39.75;35.27;98334.10;67747;1278;1016265;-66
2023/07/12 14:53:01;;;;;;;20.10;8.10;;;;;;;39.69;35.38;98332.21;67800;1278;1016320;-68
2023/07/12 14:56:04;;;;;;;19.70;7.80;;;;;;;40.00;35.56;98327.20;67816;1278;1016750;-68